Latest Weather Observations for Cape Flattery

IDQ60801

Issued at 12:35 pm EST Saturday 26 July 2014 (issued every 30 minutes, with the page automatically refreshed every 10 minutes)

About weather observations | Map of weather stations | Latest weather observations for QLD | Other Formats
Station Details ID: 031213 Name: CAPE FLATTERY Lat: -14.97 Lon: 145.31 Height: 18.5 m
Data from the previous 72 hours. | See also: Recent months at Cape Flattery
Date/Time
EST
Temp
°C
App
Temp
°C
Dew
Point
Rel
Hum
%
Delta-T
°C
Wind Press
QNH
hPa
Press
MSL
hPa
Rain
since 9 am
mm
Dir
 
Spd
km/h
Gust
km/h
Spd
kts
Gust
kts
26/12:30pm 26.3 23.3 20.6 71 3.7 SSE 37 48 20 26 1019.7 - 0.0
26/12:00pm 25.8 23.8 21.2 76 3.0 SSE 33 44 18 24 1020.1 1020.0 0.0
26/11:30am 24.4 22.1 20.5 79 2.5 SSE 33 44 18 24 1020.6 - 0.0
26/11:00am 24.0 21.5 20.1 79 2.5 SSE 33 46 18 25 1020.7 - 0.0
26/10:30am 23.5 20.8 19.6 79 2.5 S 33 43 18 23 1020.8 - 0.0
26/10:00am 25.0 22.7 20.5 76 2.9 S 33 43 18 23 1020.8 - 0.0
26/09:30am 24.7 22.6 20.6 78 2.7 SSE 32 43 17 23 1020.8 - 0.0
26/09:00am 23.8 21.3 19.7 78 2.6 SSE 32 41 17 22 1020.6 1020.5 0.0
26/08:30am 23.3 20.6 19.2 78 2.6 SSE 32 43 17 23 1020.6 - 0.0
26/08:00am 23.5 21.5 19.2 77 2.7 SSE 28 37 15 20 1020.1 - 0.0
26/07:30am 23.6 22.4 19.3 77 2.7 SSE 24 33 13 18 1019.9 - 0.0
26/07:00am 22.6 21.6 18.8 79 2.4 SSE 22 28 12 15 1019.7 - 0.0
26/06:30am 22.6 21.4 18.4 77 2.6 SE 22 30 12 16 1019.7 - 0.0
26/06:00am 22.8 21.6 18.3 76 2.8 SE 22 30 12 16 1019.4 1019.3 0.0
26/05:30am 22.8 21.6 18.3 76 2.8 SE 22 30 12 16 1019.3 - 0.0
26/05:00am 22.8 21.7 18.6 77 2.6 SE 22 28 12 15 1019.1 - 0.0
26/04:30am 22.6 21.8 18.4 77 2.6 SE 20 30 11 16 1019.2 - 0.0
26/04:00am 22.9 21.8 18.7 77 2.7 SE 22 32 12 17 1019.1 - 0.0
26/03:30am 23.0 21.7 19.0 78 2.5 SE 24 35 13 19 1019.0 - 0.0
26/03:00am 22.9 21.7 19.3 80 2.3 SSE 24 30 13 16 1019.1 1019.0 0.0
26/02:30am 22.9 21.7 19.3 80 2.3 SE 24 32 13 17 1019.3 - 0.0
26/02:00am 23.0 21.4 19.2 79 2.4 SSE 26 33 14 18 1019.6 - 0.0
26/01:30am 22.8 21.4 18.8 78 2.5 SE 24 33 13 18 1019.7 - 0.0
26/01:00am 22.8 21.0 18.8 78 2.5 SE 26 35 14 19 1019.8 - 0.0
26/12:30am 22.9 21.1 18.7 77 2.7 SSE 26 33 14 18 1019.9 - 0.0
26/12:00am 22.9 21.7 18.4 76 2.8 SE 22 30 12 16 1020.3 1020.2 0.0
 
Date/Time
EST
Temp
°C
App
Temp
°C
Dew
Point
Rel
Hum
%
Delta-T
°C
Wind Press
QNH
hPa
Press
MSL
hPa
Rain
since 9 am
mm
Dir
 
Spd
km/h
Gust
km/h
Spd
kts
Gust
kts
25/11:30pm 22.9 21.6 18.2 75 2.9 SE 22 32 12 17 1020.6 - 0.0
25/11:00pm 22.7 22.0 18.7 78 2.5 SSE 20 28 11 15 1021.1 - 0.0
25/10:30pm 22.4 21.6 18.4 78 2.5 SE 20 28 11 15 1021.1 - 0.0
25/10:00pm 22.9 20.9 18.4 76 2.8 SE 26 41 14 22 1021.0 - 0.0
25/09:30pm 22.9 20.4 18.0 74 3.1 SE 28 46 15 25 1021.0 - 0.0
25/09:00pm 22.6 19.7 17.9 75 2.9 SE 30 44 16 24 1020.9 1020.8 0.0
25/08:30pm 23.1 21.4 18.0 73 3.2 SE 24 33 13 18 1020.6 - 0.0
25/08:00pm 23.0 22.2 18.1 74 3.1 SE 19 28 10 15 1020.3 - 0.0
25/07:30pm 22.9 20.9 18.4 76 2.8 SE 26 41 14 22 1019.8 - 0.0
25/07:00pm 22.7 20.9 17.8 74 3.0 SE 24 33 13 18 1019.4 - 0.0
25/06:30pm 22.8 20.5 17.7 73 3.2 SE 26 39 14 21 1018.9 - 0.0
25/06:00pm 23.0 21.2 17.9 73 3.2 SE 24 33 13 18 1018.7 1018.6 0.0
25/05:30pm 23.6 21.8 17.8 70 3.6 SE 24 35 13 19 1018.3 - 0.0
25/05:00pm 24.6 22.9 18.1 67 4.1 SE 24 35 13 19 1018.1 - 0.0
25/04:30pm 24.3 20.8 17.5 66 4.2 SE 32 41 17 22 1018.0 - 0.0
25/04:00pm 25.7 23.7 17.4 60 5.2 SE 24 32 13 17 1017.7 - 0.0
25/03:30pm 26.0 22.7 17.1 58 5.5 SE 30 37 16 20 1017.7 - 0.0
25/03:00pm 26.1 25.0 17.2 58 5.5 SE 19 37 10 20 1017.7 1017.6 0.0
25/02:30pm 26.6 29.0 17.1 56 5.9 CALM 0 0 0 0 1017.7 - 0.0
25/02:00pm 27.1 30.0 18.1 58 5.7 CALM 0 0 0 0 1017.7 - 0.0
25/01:30pm 27.0 29.8 18.0 58 5.7 CALM 0 4 0 2 1018.2 - 0.0
25/01:00pm 27.0 29.7 18.6 60 5.4 ESE 2 37 1 20 1018.7 - 0.0
25/12:30pm 26.4 26.0 18.8 63 4.9 ESE 19 43 10 23 1019.0 - 0.0
25/12:00pm 26.7 28.9 19.6 65 4.6 ESE 7 41 4 22 1019.3 1019.2 0.0
25/11:30am 26.5 28.1 19.9 67 4.3 ESE 11 39 6 21 1019.4 - 0.0
25/11:00am 24.9 28.1 18.8 69 3.9 CALM 0 0 0 0 1019.6 - 0.0
25/10:30am 25.0 28.5 19.6 72 3.5 CALM 0 0 0 0 1019.6 - 0.0
25/10:00am 25.0 28.7 20.0 74 3.2 CALM 0 0 0 0 1019.6 - 0.0
25/09:30am 25.1 29.1 20.6 76 2.9 CALM 0 0 0 0 1019.5 - 0.0
25/09:00am 24.9 28.8 20.4 76 2.9 CALM 0 0 0 0 1019.3 1019.2 0.2
25/08:30am 24.8 28.8 20.5 77 2.8 CALM 0 0 0 0 1018.9 - 0.2
25/08:00am 23.7 27.5 20.2 81 2.3 CALM 0 0 0 0 1018.6 - 0.2
25/07:30am 22.3 25.8 19.5 84 1.8 CALM 0 0 0 0 1018.3 - 0.2
25/07:00am 22.6 26.1 19.6 83 1.9 CALM 0 0 0 0 1017.8 - 0.0
25/06:30am 22.0 25.3 19.0 83 1.9 CALM 0 0 0 0 1017.6 - 0.0
25/06:00am 21.9 25.1 18.9 83 1.9 CALM 0 0 0 0 1017.2 1017.1 0.0
25/05:30am 22.6 26.0 19.4 82 2.0 CALM 0 0 0 0 1016.7 - 0.0
25/05:00am 22.8 26.4 19.8 83 1.9 CALM 0 0 0 0 1016.6 - 0.0
25/04:30am 22.4 25.7 19.2 82 2.0 CALM 0 0 0 0 1016.8 - 0.0
25/04:00am 22.4 25.7 19.0 81 2.2 CALM 0 0 0 0 1016.7 - 0.0
25/03:30am 22.1 25.3 18.9 82 2.0 CALM 0 0 0 0 1016.8 - 0.0
25/03:00am 21.7 24.6 18.3 81 2.1 CALM 0 0 0 0 1016.7 1016.6 0.0
25/02:30am 22.2 25.3 18.6 80 2.3 CALM 0 0 0 0 1017.0 - 0.0
25/02:00am 22.1 25.1 18.5 80 2.3 CALM 0 28 0 15 1017.0 - 0.0
25/01:30am 22.7 25.4 18.7 78 2.5 SSE 2 30 1 16 1017.1 - 0.0
25/01:00am 22.5 25.5 18.5 78 2.5 CALM 0 30 0 16 1017.4 - 0.0
25/12:30am 23.0 26.1 18.7 77 2.7 CALM 0 19 0 10 1017.3 - 0.0
25/12:00am 22.9 25.9 18.4 76 2.8 CALM 0 0 0 0 1017.6 1017.5 0.0
 
Date/Time
EST
Temp
°C
App
Temp
°C
Dew
Point
Rel
Hum
%
Delta-T
°C
Wind Press
QNH
hPa
Press
MSL
hPa
Rain
since 9 am
mm
Dir
 
Spd
km/h
Gust
km/h
Spd
kts
Gust
kts
24/11:30pm 23.0 26.0 18.5 76 2.8 CALM 0 0 0 0 1017.8 - 0.0
24/11:00pm 23.0 26.1 18.7 77 2.7 CALM 0 0 0 0 1018.1 - 0.0
24/10:30pm 22.9 26.0 18.7 77 2.7 CALM 0 0 0 0 1018.3 - 0.0
24/10:00pm 22.3 25.2 18.3 78 2.5 CALM 0 0 0 0 1018.4 - 0.0
24/09:30pm 21.8 24.6 18.0 79 2.4 CALM 0 0 0 0 1018.2 - 0.0
24/09:00pm 22.0 25.0 18.4 80 2.3 CALM 0 0 0 0 1018.1 1018.0 0.0
24/08:30pm 22.1 25.0 18.3 79 2.4 CALM 0 0 0 0 1017.9 - 0.0
24/08:00pm 22.1 25.0 18.1 78 2.5 CALM 0 0 0 0 1017.7 - 0.0
24/07:30pm 22.1 24.7 17.5 75 2.8 CALM 0 0 0 0 1017.4 - 0.0
24/07:00pm 22.1 24.3 16.4 70 3.5 CALM 0 0 0 0 1017.0 - 0.0
24/06:30pm 22.8 25.0 16.4 67 3.9 CALM 0 0 0 0 1016.7 - 0.0
24/06:00pm 22.9 24.9 16.0 65 4.2 CALM 0 0 0 0 1016.4 1016.3 0.0
24/05:30pm 23.8 25.8 16.1 62 4.7 CALM 0 0 0 0 1016.2 - 0.0
24/05:00pm 24.5 26.5 16.0 59 5.2 CALM 0 0 0 0 1015.8 - 0.0
24/04:30pm 24.9 26.7 15.5 56 5.7 CALM 0 0 0 0 1015.7 - 0.0
24/04:00pm 25.2 27.0 15.5 55 5.9 CALM 0 0 0 0 1015.7 - 0.0
24/03:30pm 25.6 27.7 16.2 56 5.8 CALM 0 0 0 0 1015.7 - 0.0
24/03:00pm 26.0 28.2 16.5 55 5.9 CALM 0 0 0 0 1015.8 1015.7 0.0
24/02:30pm 26.7 25.0 17.2 56 5.9 SE 22 32 12 17 1016.0 - 0.0
24/02:00pm 25.7 23.7 17.4 60 5.2 SE 24 30 13 16 1016.1 - 0.0
24/01:30pm 25.9 25.1 19.3 67 4.2 SSE 22 28 12 15 1016.4 - 0.0
24/01:00pm 24.7 23.1 18.4 68 4.0 SSE 24 30 13 16 1016.8 - 0.0
24/12:30pm 24.1 22.6 17.6 67 4.1 SE 22 32 12 17 1017.3 - 0.0
24/12:00pm 24.6 23.2 17.1 63 4.6 SE 20 26 11 14 1017.4 1017.3 0.0
24/11:30am 25.1 23.6 16.8 60 5.1 ESE 20 32 11 17 1017.7 - 0.0
24/11:00am 25.7 23.2 17.1 59 5.3 ESE 26 33 14 18 1017.9 - 0.0
24/10:30am 25.8 23.6 16.9 58 5.5 ESE 24 35 13 19 1018.0 - 0.0
24/10:00am 25.3 22.8 17.0 60 5.1 ESE 26 35 14 19 1017.9 - 0.0
24/09:30am 25.2 23.7 17.7 63 4.7 ESE 22 32 12 17 1017.8 - 0.0
24/09:00am 23.8 22.1 17.1 66 4.1 SE 22 32 12 17 1017.5 1017.4 2.2
24/08:30am 23.9 21.9 17.4 67 4.0 ESE 24 35 13 19 1017.0 - 2.2
24/08:00am 23.3 21.6 17.3 69 3.7 ESE 22 32 12 17 1016.6 - 2.2
24/07:30am 22.5 19.9 16.8 70 3.5 ESE 26 35 14 19 1016.0 - 2.2
24/07:00am 21.9 20.3 16.6 72 3.2 ESE 20 32 11 17 1015.5 - 2.2
24/06:30am 22.2 20.1 17.1 73 3.1 ESE 24 33 13 18 1015.1 - 2.2
24/06:00am 22.0 19.8 16.9 73 3.1 SE 24 35 13 19 1014.9 1014.8 2.2
24/05:30am 22.0 19.3 16.7 72 3.2 SE 26 37 14 20 1014.7 - 2.2
24/05:00am 22.3 19.8 17.0 72 3.3 SE 26 33 14 18 1014.6 - 2.2
24/04:30am 22.1 19.3 17.2 74 3.0 SE 28 39 15 21 1014.8 - 2.2
24/04:00am 22.2 19.7 17.1 73 3.1 SSE 26 35 14 19 1014.9 - 2.0
24/03:30am 22.2 18.8 16.7 71 3.4 SSE 30 39 16 21 1015.0 - 2.0
24/03:00am 22.3 19.7 16.8 71 3.4 SE 26 39 14 21 1015.3 1015.2 2.0
24/02:30am 22.1 20.3 17.0 73 3.1 SE 22 32 12 17 1015.6 - 2.0
24/02:00am 22.0 19.4 16.9 73 3.1 SE 26 35 14 19 1015.7 - 2.0
24/01:30am 21.9 19.8 17.1 74 2.9 SE 24 35 13 19 1015.8 - 2.0
24/01:00am 22.0 19.2 17.2 74 2.9 SE 28 39 15 21 1016.1 - 2.0
24/12:30am 22.1 19.3 17.2 74 3.0 SE 28 39 15 21 1016.4 - 2.0
24/12:00am 21.9 19.1 17.3 75 2.8 SE 28 35 15 19 1016.5 1016.4 2.0
 
Date/Time
EST
Temp
°C
App
Temp
°C
Dew
Point
Rel
Hum
%
Delta-T
°C
Wind Press
QNH
hPa
Press
MSL
hPa
Rain
since 9 am
mm
Dir
 
Spd
km/h
Gust
km/h
Spd
kts
Gust
kts
23/11:30pm 22.1 18.5 17.2 74 3.0 SE 32 44 17 24 1016.5 - 2.0
23/11:00pm 22.2 19.1 17.6 75 2.8 SE 30 39 16 21 1016.8 - 2.0
23/10:30pm 22.3 19.8 18.1 77 2.6 SE 28 39 15 21 1017.0 - 2.0
23/10:00pm 22.0 20.0 18.2 79 2.4 SE 26 37 14 20 1016.9 - 2.0
23/09:30pm 21.8 20.6 18.4 81 2.1 SE 22 32 12 17 1016.8 - 2.0
23/09:00pm 21.1 19.9 18.3 84 1.7 SE 22 28 12 15 1016.8 1016.7 2.0
23/08:30pm 20.9 20.2 18.3 85 1.6 SE 19 30 10 16 1016.6 - 2.0
23/08:00pm 20.5 18.8 18.1 86 1.5 SE 24 32 13 17 1016.4 - 2.0
23/07:30pm 20.1 17.8 17.7 86 1.5 SSE 26 37 14 20 1016.1 - 2.0
23/07:00pm 20.0 18.8 17.4 85 1.6 SSE 20 30 11 16 1016.0 - 1.2
23/06:30pm 20.6 17.6 17.8 84 1.7 SE 30 41 16 22 1015.7 - 0.4
23/06:00pm 21.3 19.3 18.3 83 1.9 SSE 26 39 14 21 1015.4 1015.3 0.4
23/05:30pm 20.9 19.4 17.7 82 2.0 SSE 22 28 12 15 1015.2 - 0.4
23/05:00pm 21.2 20.4 18.0 82 2.0 S 19 32 10 17 1014.9 - 0.4
23/04:30pm 21.9 19.6 17.7 77 2.6 S 26 35 14 19 1014.8 - 0.0
23/04:00pm 23.4 21.3 18.1 72 3.3 S 26 35 14 19 1014.6 - 0.0
23/03:30pm 24.4 22.4 18.3 69 3.8 SSE 26 35 14 19 1014.3 - 0.0
23/03:00pm 25.2 23.4 17.9 64 4.6 SSE 24 32 13 17 1014.4 1014.3 0.0
23/02:30pm 24.8 23.2 17.5 64 4.6 SSE 22 30 12 16 1014.5 - 0.0
23/02:00pm 24.5 22.6 17.7 66 4.3 SSE 24 30 13 16 1014.7 - 0.0
23/01:30pm 24.6 22.0 17.8 66 4.3 SSE 28 39 15 21 1015.2 - 0.0
23/01:00pm 25.8 24.9 18.2 63 4.8 SE 20 26 11 14 1015.6 - 0.0

Other Formats:

Comma delimited format used in spreadsheet applications
http://www.bom.gov.au/fwo/IDQ60801/IDQ60801.94188.axf

JavaScript Object Notation format (JSON) in row-major order
http://www.bom.gov.au/fwo/IDQ60801/IDQ60801.94188.json